Time;durP1;ratioP1;P1;durP2;ratioP2;P2;SDS_P1;SDS_P2;PMS_P1;PMS_P2;Temp;Humidity;BMP_temperature;BMP_pressure;BME280_temperature;BME280_humidity;BME280_pressure;Samples;Min_cycle;Max_cycle;Signal;HPM_P1;HPM_P2
2022/03/06 00:01:04;;;;;;;10.85;6.75;;;3.60;99.90;;;;;;5033223;28;20517;-65
2022/03/06 00:03:30;;;;;;;6.38;4.47;;;2.50;99.90;;;;;;5033684;28;20049;-64
2022/03/06 00:05:56;;;;;;;7.68;4.95;;;2.20;99.90;;;;;;5033299;28;20371;-64
2022/03/06 00:08:21;;;;;;;8.02;5.35;;;2.50;99.90;;;;;;5032711;28;20052;-64
2022/03/06 00:10:48;;;;;;;9.20;6.10;;;2.30;99.90;;;;;;5034177;28;20135;-64
2022/03/06 00:13:15;;;;;;;8.10;5.25;;;2.20;99.90;;;;;;5016608;28;20053;-64
2022/03/06 00:15:43;;;;;;;8.65;5.05;;;3.20;99.90;;;;;;5032674;28;20061;-65
2022/03/06 00:18:09;;;;;;;7.07;5.18;;;2.50;99.90;;;;;;5033963;28;20045;-64
2022/03/06 00:20:35;;;;;;;7.68;4.90;;;2.50;99.90;;;;;;5034127;28;20095;-65
2022/03/06 00:23:03;;;;;;;8.38;5.07;;;2.90;99.90;;;;;;5032880;28;20082;-65
2022/03/06 00:25:29;;;;;;;6.30;5.13;;;2.40;99.90;;;;;;5033178;28;20052;-64
2022/03/06 00:27:54;;;;;;;5.88;4.30;;;2.40;99.90;;;;;;5033913;28;20374;-65
2022/03/06 00:30:20;;;;;;;7.28;4.70;;;2.50;99.90;;;;;;5033874;28;20044;-64
2022/03/06 00:32:46;;;;;;;8.57;4.65;;;3.20;99.90;;;;;;5034128;28;20512;-64
2022/03/06 00:35:11;;;;;;;8.15;5.10;;;3.30;99.90;;;;;;5033888;28;20045;-64
2022/03/06 00:37:37;;;;;;;8.27;4.88;;;3.00;99.90;;;;;;5031511;28;20045;-64
2022/03/06 00:40:05;;;;;;;5.90;4.38;;;2.60;99.90;;;;;;5032218;28;20136;-65
2022/03/06 00:42:30;;;;;;;7.93;4.30;;;2.40;99.90;;;;;;5033628;28;20055;-64
2022/03/06 00:44:56;;;;;;;8.77;4.53;;;2.40;99.90;;;;;;5033639;28;20390;-65
2022/03/06 00:47:22;;;;;;;5.63;3.50;;;3.40;99.90;;;;;;5033907;28;20049;-64
2022/03/06 00:49:48;;;;;;;7.57;4.43;;;3.00;99.90;;;;;;5033586;28;20482;-64
2022/03/06 00:52:13;;;;;;;6.57;4.10;;;2.50;99.90;;;;;;5032697;28;20119;-64
2022/03/06 00:54:39;;;;;;;6.07;3.97;;;3.20;99.90;;;;;;5033665;28;20041;-64
2022/03/06 00:57:05;;;;;;;5.47;3.85;;;3.20;99.90;;;;;;5033588;28;20481;-64
2022/03/06 00:59:33;;;;;;;5.38;4.00;;;2.50;99.90;;;;;;5033420;28;20042;-65
2022/03/06 01:02:00;;;;;;;6.90;4.15;;;2.50;99.90;;;;;;5033631;28;20085;-65
2022/03/06 01:04:26;;;;;;;6.78;3.83;;;2.80;99.90;;;;;;5033513;28;20045;-64
2022/03/06 01:06:51;;;;;;;6.25;4.05;;;2.80;99.90;;;;;;5015711;28;20041;-64
2022/03/06 01:09:17;;;;;;;6.63;3.67;;;2.50;99.90;;;;;;5033047;28;20148;-65
2022/03/06 01:11:43;;;;;;;5.28;3.85;;;3.20;99.90;;;;;;5033364;28;20132;-65
2022/03/06 01:14:09;;;;;;;5.63;3.50;;;2.80;99.90;;;;;;5033399;28;20124;-65
2022/03/06 01:16:35;;;;;;;4.45;3.58;;;3.20;99.90;;;;;;5033560;28;20057;-64
2022/03/06 01:19:01;;;;;;;4.65;3.38;;;2.70;99.90;;;;;;5033258;28;20556;-65
2022/03/06 01:21:26;;;;;;;8.40;4.95;;;3.20;99.90;;;;;;5033324;28;20076;-64
2022/03/06 01:23:52;;;;;;;6.65;3.33;;;2.60;99.90;;;;;;5015692;28;20234;-64
2022/03/06 01:26:18;;;;;;;4.57;3.20;;;2.40;99.90;;;;;;5032958;28;20056;-65
2022/03/06 01:28:44;;;;;;;4.38;3.58;;;3.20;99.90;;;;;;5033294;28;20041;-65
2022/03/06 01:31:10;;;;;;;6.85;4.45;;;2.80;99.90;;;;;;5033140;28;20072;-64
2022/03/06 01:33:36;;;;;;;5.40;3.60;;;2.40;99.90;;;;;;5032022;28;20084;-64
2022/03/06 01:36:02;;;;;;;5.25;3.70;;;2.50;99.90;;;;;;5033133;28;20124;-64
2022/03/06 01:38:28;;;;;;;6.78;3.97;;;2.50;99.90;;;;;;5032774;28;20048;-64
2022/03/06 01:40:53;;;;;;;5.25;3.92;;;2.30;99.90;;;;;;5033302;28;20042;-64
2022/03/06 01:43:19;;;;;;;4.63;3.13;;;2.70;99.90;;;;;;5032101;28;20041;-65
2022/03/06 01:45:45;;;;;;;5.30;3.15;;;2.50;99.90;;;;;;5033200;28;20041;-65
2022/03/06 01:48:11;;;;;;;5.78;3.55;;;2.80;99.90;;;;;;5031852;28;20049;-65
2022/03/06 01:50:38;;;;;;;4.30;3.17;;;3.60;99.90;;;;;;5035417;28;20111;-65
2022/03/06 01:53:07;;;;;;;3.45;3.05;;;2.50;99.90;;;;;;5035805;28;20398;-65
2022/03/06 01:55:33;;;;;;;7.70;3.95;;;2.40;99.90;;;;;;5035387;28;20053;-64
2022/03/06 01:58:03;;;;;;;7.80;3.63;;;2.70;99.90;;;;;;5036580;28;20045;-65
2022/03/06 02:00:32;;;;;;;3.90;3.10;;;2.50;99.90;;;;;;5035663;28;20489;-64
2022/03/06 02:02:58;;;;;;;5.65;3.58;;;2.80;99.90;;;;;;5036584;28;20050;-64
2022/03/06 02:05:24;;;;;;;5.60;3.22;;;2.60;99.90;;;;;;5036610;28;20041;-65
2022/03/06 02:07:50;;;;;;;4.30;3.30;;;2.50;99.90;;;;;;5036017;28;20084;-64
2022/03/06 02:10:15;;;;;;;5.75;4.15;;;2.40;99.90;;;;;;5036425;28;20138;-65
2022/03/06 02:12:42;;;;;;;5.28;3.72;;;2.50;99.90;;;;;;5036417;28;20052;-64
2022/03/06 02:15:10;;;;;;;6.90;3.95;;;2.70;99.90;;;;;;5036395;28;20132;-64
2022/03/06 02:17:37;;;;;;;5.03;3.75;;;2.50;99.90;;;;;;5035984;28;20053;-64
2022/03/06 02:20:06;;;;;;;6.47;3.40;;;3.20;99.90;;;;;;5036282;28;20053;-64
2022/03/06 02:22:35;;;;;;;4.47;2.92;;;2.70;99.90;;;;;;5036271;28;20139;-64
2022/03/06 02:25:05;;;;;;;5.30;3.63;;;2.90;99.90;;;;;;5036241;28;20049;-64
2022/03/06 02:27:31;;;;;;;5.80;3.47;;;2.40;99.90;;;;;;5034915;28;20049;-64
2022/03/06 02:29:57;;;;;;;5.30;3.15;;;2.40;99.90;;;;;;5036068;28;20057;-64
2022/03/06 02:32:23;;;;;;;4.18;2.80;;;2.80;99.90;;;;;;5036075;28;20166;-64
2022/03/06 02:34:50;;;;;;;7.10;3.33;;;2.40;99.90;;;;;;5036053;28;20054;-64
2022/03/06 02:37:20;;;;;;;6.72;3.45;;;2.90;99.90;;;;;;5035972;28;20045;-65
2022/03/06 02:39:47;;;;;;;5.13;2.92;;;3.60;99.90;;;;;;5034976;28;20490;-64
2022/03/06 02:42:27;;;;;;;5.93;2.95;;;2.70;99.90;;;;;;5018394;28;20474;-64
2022/03/06 02:44:54;;;;;;;6.10;3.10;;;2.20;99.90;;;;;;5035825;28;20088;-64
2022/03/06 02:47:20;;;;;;;5.00;3.00;;;2.70;99.90;;;;;;5034794;28;20037;-64
2022/03/06 02:49:46;;;;;;;4.05;2.95;;;2.30;99.90;;;;;;5035739;28;20068;-64
2022/03/06 02:52:12;;;;;;;4.53;3.33;;;2.40;99.90;;;;;;5035682;28;20440;-64
2022/03/06 02:54:38;;;;;;;4.18;2.95;;;2.40;99.90;;;;;;5034621;28;20045;-64
2022/03/06 02:57:04;;;;;;;4.65;2.83;;;2.40;99.90;;;;;;5035659;28;20069;-65
2022/03/06 02:59:30;;;;;;;4.65;2.25;;;2.30;99.90;;;;;;5034969;28;20042;-64
2022/03/06 03:01:56;;;;;;;5.03;2.47;;;2.50;99.90;;;;;;5035912;28;20052;-64
2022/03/06 03:04:21;;;;;;;3.85;2.45;;;2.30;99.90;;;;;;5035446;28;20089;-64
2022/03/06 03:06:51;;;;;;;5.97;2.25;;;2.80;99.90;;;;;;5035339;28;20175;-64
2022/03/06 03:09:20;;;;;;;4.65;2.42;;;2.40;99.90;;;;;;5017592;28;20069;-64
2022/03/06 03:11:47;;;;;;;5.28;2.33;;;2.60;99.90;;;;;;5035434;28;20421;-64
2022/03/06 03:14:14;;;;;;;4.50;2.83;;;2.50;99.90;;;;;;5035516;28;20056;-64
2022/03/06 03:16:40;;;;;;;5.95;2.83;;;3.00;99.90;;;;;;5035046;28;20148;-64
2022/03/06 03:19:06;;;;;;;4.45;2.75;;;2.50;99.90;;;;;;5034030;28;20046;-64
2022/03/06 03:21:32;;;;;;;5.47;2.60;;;2.40;99.90;;;;;;5035187;28;20123;-64
2022/03/06 03:23:58;;;;;;;4.70;2.05;;;2.50;99.90;;;;;;5035123;28;20077;-64
2022/03/06 03:26:24;;;;;;;6.15;3.03;;;2.80;99.90;;;;;;5035155;28;20409;-65
2022/03/06 03:28:50;;;;;;;4.32;2.65;;;2.30;99.90;;;;;;5034231;28;20541;-64
2022/03/06 03:31:16;;;;;;;3.78;2.53;;;2.40;99.90;;;;;;5034963;28;20042;-64
2022/03/06 03:33:42;;;;;;;5.00;2.70;;;2.20;99.90;;;;;;5035007;28;20045;-65
2022/03/06 03:36:08;;;;;;;6.30;2.53;;;2.30;99.90;;;;;;5035153;28;20133;-64
2022/03/06 03:38:34;;;;;;;5.45;2.53;;;2.90;99.90;;;;;;5034152;28;20052;-65
2022/03/06 03:41:01;;;;;;;3.97;2.60;;;2.50;99.90;;;;;;5033838;28;20088;-64
2022/03/06 03:43:27;;;;;;;5.82;2.40;;;2.20;99.90;;;;;;5033408;28;20095;-64
2022/03/06 03:45:53;;;;;;;5.50;2.40;;;2.10;99.90;;;;;;5034642;28;20081;-64
2022/03/06 03:48:18;;;;;;;7.57;2.58;;;2.90;99.90;;;;;;5034666;28;20076;-65
2022/03/06 03:50:44;;;;;;;4.88;2.58;;;2.20;99.90;;;;;;5033442;28;20077;-65
2022/03/06 03:53:10;;;;;;;4.35;2.33;;;3.60;99.90;;;;;;5034504;28;20402;-64
2022/03/06 03:55:36;;;;;;;3.95;2.00;;;2.50;99.90;;;;;;5034497;28;20132;-64
2022/03/06 03:58:02;;;;;;;5.20;2.65;;;2.90;99.90;;;;;;5032742;28;20049;-65
2022/03/06 04:00:28;;;;;;;3.47;2.25;;;2.10;99.90;;;;;;5033465;28;20045;-65
2022/03/06 04:02:53;;;;;;;3.78;2.10;;;2.20;99.90;;;;;;5033176;28;20045;-64
2022/03/06 04:05:19;;;;;;;5.57;1.98;;;2.30;99.90;;;;;;5034309;28;20454;-64
2022/03/06 04:07:45;;;;;;;4.45;2.05;;;3.10;99.90;;;;;;5032410;28;20199;-65
2022/03/06 04:10:11;;;;;;;6.28;2.25;;;2.50;99.90;;;;;;5033295;28;20049;-65
2022/03/06 04:12:36;;;;;;;5.30;2.28;;;2.10;99.90;;;;;;5033440;28;20136;-64
2022/03/06 04:15:03;;;;;;;3.15;2.10;;;2.40;99.90;;;;;;5034255;28;20056;-65
2022/03/06 04:17:28;;;;;;;5.47;2.15;;;2.00;99.90;;;;;;5033863;28;20049;-64
2022/03/06 04:19:54;;;;;;;3.50;2.10;;;2.00;99.90;;;;;;5033797;28;20045;-64
2022/03/06 04:22:20;;;;;;;3.40;2.00;;;2.20;99.90;;;;;;5034164;28;20042;-64
2022/03/06 04:24:45;;;;;;;7.05;2.22;;;2.20;99.90;;;;;;5033679;28;20087;-64
2022/03/06 04:27:11;;;;;;;4.00;2.15;;;2.40;99.90;;;;;;5016358;28;20057;-64
2022/03/06 04:29:37;;;;;;;3.45;1.80;;;1.90;99.90;;;;;;5033948;28;20386;-64
2022/03/06 04:32:03;;;;;;;2.55;1.73;;;2.00;99.90;;;;;;5016416;28;20049;-65
2022/03/06 04:34:29;;;;;;;2.25;1.63;;;2.00;99.90;;;;;;5032592;28;20045;-64
2022/03/06 04:36:54;;;;;;;3.97;2.03;;;2.00;99.90;;;;;;5033086;28;20048;-64
2022/03/06 04:39:20;;;;;;;2.97;1.60;;;2.50;99.90;;;;;;5032101;28;20049;-64
2022/03/06 04:41:46;;;;;;;6.35;3.20;;;1.90;99.90;;;;;;5016183;28;20366;-64
2022/03/06 04:44:13;;;;;;;3.53;1.70;;;2.60;99.90;;;;;;5034111;28;20158;-64
2022/03/06 04:46:39;;;;;;;2.92;1.42;;;1.90;99.90;;;;;;5033676;28;20061;-64
2022/03/06 04:49:05;;;;;;;2.72;1.80;;;1.80;99.90;;;;;;5032806;28;20393;-64
2022/03/06 04:51:30;;;;;;;3.10;2.03;;;1.80;99.90;;;;;;5033635;28;20119;-64
2022/03/06 04:53:56;;;;;;;3.15;1.48;;;2.90;99.90;;;;;;5032300;28;20052;-64
2022/03/06 04:56:24;;;;;;;5.60;1.80;;;3.20;99.90;;;;;;5033555;28;20085;-64
2022/03/06 04:58:50;;;;;;;2.33;1.50;;;2.20;99.90;;;;;;5032344;28;20049;-64
2022/03/06 05:01:16;;;;;;;2.70;1.45;;;2.30;99.90;;;;;;5033868;28;20052;-64
2022/03/06 05:03:42;;;;;;;4.43;2.03;;;2.60;99.90;;;;;;5032323;28;20549;-64
2022/03/06 05:06:07;;;;;;;2.35;1.63;;;1.80;99.90;;;;;;5033481;28;20115;-64
2022/03/06 05:08:33;;;;;;;3.00;1.52;;;2.30;99.90;;;;;;5031788;28;20397;-64
2022/03/06 05:10:59;;;;;;;6.43;1.75;;;3.10;99.90;;;;;;5032255;28;20092;-64
2022/03/06 05:13:25;;;;;;;5.93;1.98;;;2.10;99.90;;;;;;5033464;28;20616;-65
2022/03/06 05:15:52;;;;;;;2.78;1.73;;;2.30;99.90;;;;;;5033385;28;20528;-64
2022/03/06 05:18:18;;;;;;;3.75;1.60;;;1.70;99.90;;;;;;5031933;28;20049;-64
2022/03/06 05:20:44;;;;;;;2.60;1.50;;;1.80;99.90;;;;;;5033874;28;20046;-64
2022/03/06 05:23:10;;;;;;;2.70;1.55;;;1.50;99.90;;;;;;5034744;28;20092;-64
2022/03/06 05:25:36;;;;;;;4.22;1.80;;;1.70;99.90;;;;;;5037328;28;20130;-64
2022/03/06 05:28:02;;;;;;;3.50;1.45;;;2.60;99.90;;;;;;5037300;28;20037;-64
2022/03/06 05:30:30;;;;;;;2.20;1.50;;;1.60;99.90;;;;;;5037275;28;20049;-64
2022/03/06 05:32:56;;;;;;;2.47;1.42;;;1.60;99.90;;;;;;5037207;28;20509;-64
2022/03/06 05:35:21;;;;;;;3.00;1.65;;;2.00;99.90;;;;;;5037180;28;20139;-64
2022/03/06 05:37:47;;;;;;;3.17;1.50;;;1.90;99.90;;;;;;5019174;28;20041;-64
2022/03/06 05:40:13;;;;;;;2.50;1.60;;;1.90;99.90;;;;;;5037117;28;20057;-64
2022/03/06 05:42:39;;;;;;;5.95;1.33;;;2.60;99.90;;;;;;5037023;28;20053;-64
2022/03/06 05:45:05;;;;;;;3.72;1.67;;;3.10;99.90;;;;;;5036926;28;20081;-64
2022/03/06 05:47:30;;;;;;;3.58;1.35;;;1.60;99.90;;;;;;5037184;28;20041;-64
2022/03/06 05:49:56;;;;;;;3.40;1.50;;;2.50;99.90;;;;;;5037061;28;20482;-64
2022/03/06 05:52:22;;;;;;;4.10;1.45;;;1.50;99.90;;;;;;5037601;28;20045;-64
2022/03/06 05:54:48;;;;;;;4.70;1.77;;;1.50;99.90;;;;;;5035729;28;20049;-64
2022/03/06 05:57:14;;;;;;;5.13;1.77;;;1.70;99.90;;;;;;5036898;28;20049;-64
2022/03/06 05:59:39;;;;;;;3.85;1.70;;;2.50;99.90;;;;;;5035615;28;20037;-64
2022/03/06 06:02:05;;;;;;;2.80;1.73;;;2.60;99.90;;;;;;5036850;28;20103;-64
2022/03/06 06:04:31;;;;;;;2.53;1.30;;;1.60;99.90;;;;;;5035812;28;20111;-64
2022/03/06 06:06:57;;;;;;;2.78;1.52;;;1.30;99.90;;;;;;5037032;28;20052;-64
2022/03/06 06:09:23;;;;;;;2.95;1.38;;;1.40;99.90;;;;;;5035070;28;20045;-65
2022/03/06 06:11:48;;;;;;;2.72;1.75;;;1.90;99.90;;;;;;5035687;28;20501;-64
2022/03/06 06:14:14;;;;;;;2.55;1.58;;;1.60;99.90;;;;;;5035422;28;20045;-64
2022/03/06 06:16:40;;;;;;;3.42;1.60;;;1.60;99.90;;;;;;5035556;28;20049;-64
2022/03/06 06:19:06;;;;;;;3.30;1.80;;;1.40;99.90;;;;;;5036352;28;20478;-65
2022/03/06 06:21:31;;;;;;;2.88;1.40;;;1.90;99.90;;;;;;5035164;28;20132;-65
2022/03/06 06:23:57;;;;;;;2.70;1.65;;;1.30;99.90;;;;;;5035405;28;20132;-64
2022/03/06 06:26:24;;;;;;;4.05;1.58;;;2.00;99.90;;;;;;5036390;28;20469;-65
2022/03/06 06:28:55;;;;;;;3.15;1.60;;;2.20;99.90;;;;;;5036321;28;20049;-64
2022/03/06 06:31:23;;;;;;;3.35;1.63;;;2.10;99.90;;;;;;5036308;28;20053;-64
2022/03/06 06:33:50;;;;;;;2.78;1.65;;;2.40;99.90;;;;;;5034832;28;20061;-64
2022/03/06 06:36:16;;;;;;;2.88;1.60;;;1.10;99.90;;;;;;5034357;28;20045;-64
2022/03/06 06:38:42;;;;;;;2.20;1.55;;;1.20;99.90;;;;;;5035485;28;20124;-65
2022/03/06 06:41:07;;;;;;;3.30;1.85;;;1.20;99.90;;;;;;5036116;28;20056;-65
2022/03/06 06:43:33;;;;;;;3.28;1.80;;;1.50;99.90;;;;;;5034840;28;20045;-64
2022/03/06 06:45:59;;;;;;;2.92;1.90;;;1.50;99.90;;;;;;5035039;28;20106;-64
2022/03/06 06:48:25;;;;;;;2.58;1.65;;;1.70;99.90;;;;;;5035963;28;20041;-64
2022/03/06 06:50:51;;;;;;;5.65;1.95;;;1.10;99.90;;;;;;5036033;28;20091;-64
2022/03/06 06:53:16;;;;;;;4.65;2.50;;;2.40;99.90;;;;;;5035891;28;20124;-64
2022/03/06 06:55:42;;;;;;;4.28;2.20;;;1.60;99.90;;;;;;5035839;28;20137;-64
2022/03/06 06:58:08;;;;;;;2.50;1.73;;;1.00;99.90;;;;;;5034595;28;20045;-64
2022/03/06 07:00:34;;;;;;;3.05;1.90;;;1.20;99.90;;;;;;5035761;28;20072;-64
2022/03/06 07:03:00;;;;;;;2.40;1.70;;;1.10;99.90;;;;;;5034718;28;20473;-64
2022/03/06 07:05:26;;;;;;;4.88;1.70;;;1.00;99.90;;;;;;5034884;28;20045;-64
2022/03/06 07:07:53;;;;;;;2.03;1.55;;;1.20;99.90;;;;;;5034968;28;20038;-65
2022/03/06 07:10:19;;;;;;;4.57;1.70;;;1.10;99.90;;;;;;5018179;28;20053;-64
2022/03/06 07:12:53;;;;;;;3.90;1.10;;;1.20;99.90;;;;;;5035772;28;20037;-64
2022/03/06 07:15:19;;;;;;;2.17;1.35;;;2.70;99.90;;;;;;5035534;28;20143;-64
2022/03/06 07:17:45;;;;;;;2.45;1.48;;;1.40;99.90;;;;;;5033997;28;20517;-64
2022/03/06 07:20:11;;;;;;;1.63;1.35;;;1.60;99.90;;;;;;5033925;28;20496;-64
2022/03/06 07:22:37;;;;;;;2.88;1.20;;;2.00;99.90;;;;;;5034317;28;20041;-64
2022/03/06 07:25:04;;;;;;;1.48;1.15;;;1.40;99.90;;;;;;5034099;28;20054;-64
2022/03/06 07:27:30;;;;;;;2.40;1.98;;;1.40;99.90;;;;;;5035276;28;20060;-64
2022/03/06 07:29:56;;;;;;;2.90;1.30;;;1.50;99.90;;;;;;5033953;28;20041;-65
2022/03/06 07:32:23;;;;;;;3.78;1.63;;;1.40;99.90;;;;;;5034039;28;20045;-64
2022/03/06 07:34:48;;;;;;;2.33;1.13;;;2.10;99.90;;;;;;5033962;28;20123;-64
2022/03/06 07:37:14;;;;;;;2.67;1.35;;;1.60;99.90;;;;;;5035340;28;20478;-64
2022/03/06 07:39:41;;;;;;;1.88;1.27;;;2.50;99.90;;;;;;5033180;28;20048;-65
2022/03/06 07:42:07;;;;;;;1.45;1.20;;;1.50;99.90;;;;;;5033764;28;20099;-64
2022/03/06 07:44:32;;;;;;;1.98;1.35;;;1.80;99.90;;;;;;5033576;28;20049;-64
2022/03/06 07:46:58;;;;;;;2.28;1.60;;;1.70;99.90;;;;;;5034750;28;20053;-64
2022/03/06 07:49:24;;;;;;;1.95;1.10;;;2.10;99.90;;;;;;5035363;28;20045;-64
2022/03/06 07:51:50;;;;;;;2.40;1.10;;;1.80;99.90;;;;;;5034785;28;20481;-64
2022/03/06 07:54:17;;;;;;;1.58;1.10;;;1.90;99.90;;;;;;5034759;28;20130;-64
2022/03/06 07:56:44;;;;;;;1.52;1.10;;;2.10;99.90;;;;;;5034678;28;20061;-64
2022/03/06 07:59:09;;;;;;;2.40;1.20;;;2.00;99.90;;;;;;5034367;28;20038;-64
2022/03/06 08:01:35;;;;;;;2.08;1.15;;;2.20;99.90;;;;;;5034599;28;20100;-64
2022/03/06 08:04:01;;;;;;;2.97;1.27;;;2.60;99.90;;;;;;5033931;28;20041;-65
2022/03/06 08:06:27;;;;;;;2.75;1.13;;;2.00;99.90;;;;;;5033893;28;20045;-64
2022/03/06 08:08:53;;;;;;;2.53;1.58;;;3.00;99.90;;;;;;5032264;28;20055;-64
2022/03/06 08:11:18;;;;;;;1.95;1.02;;;2.20;99.90;;;;;;5034154;28;20128;-65
2022/03/06 08:13:44;;;;;;;1.98;1.23;;;2.30;99.90;;;;;;5034750;28;20052;-65
2022/03/06 08:16:10;;;;;;;3.10;1.30;;;2.10;99.90;;;;;;5017280;28;20037;-64
2022/03/06 08:18:36;;;;;;;2.55;1.45;;;2.70;99.90;;;;;;5032652;28;20049;-65
2022/03/06 08:21:02;;;;;;;1.58;1.17;;;2.50;99.90;;;;;;5034084;28;20104;-65
2022/03/06 08:23:27;;;;;;;1.98;1.27;;;2.30;99.90;;;;;;5034099;28;20136;-65
2022/03/06 08:25:53;;;;;;;1.42;1.02;;;2.30;99.90;;;;;;5034366;28;20054;-65
2022/03/06 08:28:19;;;;;;;1.30;1.00;;;3.00;99.90;;;;;;5033556;28;20052;-66
2022/03/06 08:30:45;;;;;;;2.65;0.90;;;2.30;99.90;;;;;;5033596;28;20046;-65
2022/03/06 08:33:11;;;;;;;1.48;1.20;;;2.50;99.90;;;;;;5030140;28;20045;-66
2022/03/06 08:35:37;;;;;;;2.33;1.10;;;2.50;99.90;;;;;;5026282;28;20041;-66
2022/03/06 08:38:03;;;;;;;1.60;1.00;;;4.00;99.90;;;;;;5027076;28;20052;-66
2022/03/06 08:40:31;;;;;;;2.33;1.40;;;2.80;99.90;;;;;;5022466;28;20042;-66
2022/03/06 08:42:57;;;;;;;2.40;1.42;;;2.70;99.90;;;;;;5026571;28;20044;-66
2022/03/06 08:45:24;;;;;;;2.05;1.05;;;3.50;99.90;;;;;;5027752;28;20053;-66
2022/03/06 08:47:49;;;;;;;1.40;1.30;;;3.00;99.90;;;;;;5021195;28;20481;-67
2022/03/06 08:50:15;;;;;;;1.90;1.20;;;2.70;99.90;;;;;;5024208;28;20048;-67
2022/03/06 08:52:41;;;;;;;1.88;1.15;;;3.00;99.90;;;;;;5028764;28;20060;-66
2022/03/06 08:55:09;;;;;;;1.42;1.30;;;2.80;99.90;;;;;;5028520;28;20068;-67
2022/03/06 08:57:35;;;;;;;2.25;1.10;;;3.00;99.90;;;;;;5025510;28;20117;-66
2022/03/06 09:00:04;;;;;;;2.40;1.55;;;3.20;99.90;;;;;;5023574;28;20596;-66
2022/03/06 09:02:29;;;;;;;1.85;1.10;;;3.20;99.90;;;;;;5022333;28;20077;-66
2022/03/06 09:04:55;;;;;;;3.00;1.15;;;3.00;99.90;;;;;;5025230;28;20826;-66
2022/03/06 09:07:21;;;;;;;3.03;1.23;;;2.80;99.90;;;;;;5024713;28;20055;-66
2022/03/06 09:09:47;;;;;;;4.43;1.25;;;3.10;99.90;;;;;;5025779;28;20072;-66
2022/03/06 09:12:12;;;;;;;2.08;1.33;;;3.20;99.90;;;;;;5026224;28;20065;-67
2022/03/06 09:14:38;;;;;;;2.45;1.50;;;3.30;99.90;;;;;;5023277;28;20420;-66
2022/03/06 09:17:04;;;;;;;2.33;1.17;;;3.30;99.90;;;;;;5028534;28;20049;-66
2022/03/06 09:19:30;;;;;;;1.55;0.90;;;3.60;99.90;;;;;;5025232;28;20516;-66
2022/03/06 09:21:56;;;;;;;1.70;1.00;;;3.10;99.90;;;;;;5025544;28;20046;-66
2022/03/06 09:24:21;;;;;;;2.05;1.08;;;3.40;99.90;;;;;;5026770;28;20076;-66
2022/03/06 09:26:47;;;;;;;2.38;1.00;;;3.30;99.90;;;;;;5023552;28;20049;-66
2022/03/06 09:29:13;;;;;;;2.15;1.00;;;3.20;99.90;;;;;;5024484;28;20561;-67
2022/03/06 09:31:39;;;;;;;3.03;0.90;;;3.30;99.80;;;;;;5009144;28;20056;-66
2022/03/06 09:34:06;;;;;;;1.38;1.27;;;3.60;98.30;;;;;;5025516;28;20128;-64
2022/03/06 09:36:32;;;;;;;1.25;1.00;;;3.30;98.20;;;;;;5032125;28;20049;-64
2022/03/06 09:38:58;;;;;;;2.58;1.10;;;3.50;98.30;;;;;;5032683;28;20493;-64
2022/03/06 09:41:26;;;;;;;3.08;1.10;;;3.40;98.00;;;;;;5029906;28;20077;-64
2022/03/06 09:43:56;;;;;;;2.17;1.30;;;3.90;97.80;;;;;;5031292;28;20524;-64
2022/03/06 09:46:22;;;;;;;2.03;1.13;;;4.00;97.70;;;;;;5033017;28;20501;-65
2022/03/06 09:48:49;;;;;;;2.70;1.20;;;3.60;97.50;;;;;;5033251;28;20056;-66
2022/03/06 09:51:15;;;;;;;1.83;1.20;;;3.80;97.40;;;;;;5032005;28;20049;-65
2022/03/06 09:53:41;;;;;;;1.92;1.13;;;3.80;97.20;;;;;;5032011;28;20107;-65
2022/03/06 09:56:07;;;;;;;1.83;0.98;;;4.20;97.50;;;;;;5032304;28;20493;-65
2022/03/06 09:58:36;;;;;;;1.70;1.15;;;3.60;96.40;;;;;;5033076;28;20049;-65
2022/03/06 10:01:02;;;;;;;2.53;1.10;;;3.90;96.40;;;;;;5031719;28;20553;-65
2022/03/06 10:03:32;;;;;;;3.30;1.20;;;4.00;96.10;;;;;;5015516;28;20080;-65
2022/03/06 10:05:58;;;;;;;3.85;1.10;;;4.00;95.10;;;;;;5033113;28;20041;-64
2022/03/06 10:08:24;;;;;;;2.92;1.13;;;4.50;95.40;;;;;;5032635;28;20045;-64
2022/03/06 10:10:57;;;;;;;3.55;2.22;;;3.90;94.80;;;;;;5035399;28;20045;-64
2022/03/06 10:13:28;;;;;;;1.60;1.25;;;4.00;94.10;;;;;;5036691;28;20140;-64
2022/03/06 10:15:58;;;;;;;2.25;1.20;;;4.00;94.70;;;;;;5035628;28;20172;-64
2022/03/06 10:18:24;;;;;;;3.08;1.20;;;4.40;94.70;;;;;;5036192;28;20041;-64
2022/03/06 10:20:50;;;;;;;2.20;1.00;;;5.10;94.90;;;;;;5036524;28;20076;-64
2022/03/06 10:23:26;;;;;;;3.42;1.10;;;4.10;94.50;;;;;;5036477;28;20048;-64
2022/03/06 10:26:10;;;;;;;3.10;2.00;;;4.50;94.30;;;;;;5036530;28;20049;-64
2022/03/06 10:28:51;;;;;;;2.17;1.55;;;4.00;93.30;;;;;;5036490;28;20037;-64
2022/03/06 10:31:19;;;;;;;2.10;1.30;;;4.80;94.10;;;;;;5036378;28;20076;-63
2022/03/06 10:33:55;;;;;;;2.30;1.00;;;4.30;94.10;;;;;;5018570;28;20045;-65
2022/03/06 10:36:33;;;;;;;3.72;1.15;;;4.20;94.00;;;;;;5036386;28;20504;-65
2022/03/06 10:38:59;;;;;;;1.40;1.00;;;4.30;93.70;;;;;;5036201;28;20128;-65
2022/03/06 10:41:35;;;;;;;2.25;1.52;;;4.30;93.40;;;;;;5036079;28;20393;-66
2022/03/06 10:44:01;;;;;;;3.00;1.20;;;4.40;93.50;;;;;;5036119;28;20049;-65
2022/03/06 10:46:26;;;;;;;1.73;1.20;;;4.20;93.40;;;;;;5036027;28;20103;-65
2022/03/06 10:49:00;;;;;;;1.73;1.02;;;4.40;93.70;;;;;;5036131;28;20045;-65
2022/03/06 10:51:27;;;;;;;2.58;1.48;;;4.90;93.70;;;;;;5036115;28;20389;-66
2022/03/06 10:53:55;;;;;;;3.33;2.20;;;4.50;93.40;;;;;;5036230;28;20489;-65
2022/03/06 10:56:21;;;;;;;3.60;1.50;;;4.70;93.60;;;;;;5035515;28;20548;-66
2022/03/06 10:58:48;;;;;;;2.63;1.15;;;4.40;93.60;;;;;;5034515;28;20084;-65
2022/03/06 11:01:14;;;;;;;2.33;1.30;;;4.40;93.40;;;;;;5035874;28;20111;-65
2022/03/06 11:03:42;;;;;;;1.35;1.10;;;4.40;93.50;;;;;;5035943;28;20041;-65
2022/03/06 11:06:10;;;;;;;3.70;1.30;;;5.20;93.70;;;;;;5035630;28;20088;-66
2022/03/06 11:08:37;;;;;;;3.83;1.75;;;4.70;93.30;;;;;;5034098;28;20053;-65
2022/03/06 11:11:07;;;;;;;1.70;1.38;;;4.60;93.00;;;;;;5035584;28;20053;-66
2022/03/06 11:13:34;;;;;;;2.40;1.50;;;5.40;93.30;;;;;;5035487;28;20053;-65
2022/03/06 11:16:01;;;;;;;2.28;1.40;;;4.80;93.10;;;;;;5035764;28;20046;-64
2022/03/06 11:18:29;;;;;;;1.95;1.35;;;4.80;92.90;;;;;;5034953;28;20054;-63
2022/03/06 11:20:57;;;;;;;2.92;1.40;;;4.80;92.80;;;;;;5035017;28;20049;-63
2022/03/06 11:23:35;;;;;;;2.88;1.42;;;4.70;92.40;;;;;;5035334;28;20053;-63
2022/03/06 11:26:28;;;;;;;1.60;1.30;;;4.90;91.80;;;;;;5034246;28;20045;-64
2022/03/06 11:29:22;;;;;;;2.25;1.38;;;4.80;92.00;;;;;;5030849;28;20053;-63
2022/03/06 11:31:53;;;;;;;3.00;1.45;;;5.00;92.20;;;;;;5035379;28;20458;-63
2022/03/06 11:34:32;;;;;;;3.85;1.60;;;5.10;91.90;;;;;;5035171;28;20080;-64
2022/03/06 11:37:02;;;;;;;2.38;1.42;;;5.10;92.00;;;;;;5033849;28;20092;-63
2022/03/06 11:39:31;;;;;;;3.13;1.25;;;5.00;91.80;;;;;;5034749;28;20048;-64
2022/03/06 11:42:05;;;;;;;3.00;1.50;;;5.00;91.70;;;;;;5035380;28;20091;-64
2022/03/06 11:44:36;;;;;;;1.75;1.38;;;5.20;91.70;;;;;;5018083;28;20054;-63
2022/03/06 11:47:38;;;;;;;2.90;1.42;;;5.00;91.60;;;;;;5034925;28;20124;-64
2022/03/06 11:50:05;;;;;;;4.95;1.42;;;5.00;91.90;;;;;;5031088;28;20132;-64
2022/03/06 11:52:42;;;;;;;3.92;1.63;;;5.00;92.00;;;;;;5034808;28;20084;-66
2022/03/06 11:55:33;;;;;;;2.08;1.30;;;5.10;91.80;;;;;;5034817;28;20100;-67
2022/03/06 11:57:59;;;;;;;2.05;1.25;;;5.10;91.60;;;;;;5034614;28;20127;-67
2022/03/06 12:00:28;;;;;;;4.82;1.40;;;5.20;92.10;;;;;;5033617;28;20124;-66
2022/03/06 12:02:59;;;;;;;2.10;1.20;;;5.40;91.90;;;;;;5034633;28;20050;-67
2022/03/06 12:05:48;;;;;;;2.75;1.30;;;5.40;91.70;;;;;;5034702;28;20124;-67
2022/03/06 12:08:16;;;;;;;4.03;1.40;;;5.30;91.60;;;;;;5033101;28;20119;-67
2022/03/06 12:10:44;;;;;;;2.00;1.13;;;5.50;91.90;;;;;;5035050;28;20045;-67
2022/03/06 12:13:17;;;;;;;4.93;1.23;;;5.50;91.90;;;;;;5034439;28;20053;-67
2022/03/06 12:16:06;;;;;;;2.92;1.27;;;5.60;92.10;;;;;;5035141;28;20464;-66
2022/03/06 12:18:32;;;;;;;3.10;1.50;;;5.70;92.00;;;;;;5032872;28;20080;-66
2022/03/06 12:20:58;;;;;;;3.97;1.48;;;5.90;92.10;;;;;;5034202;28;20494;-66
2022/03/06 12:23:28;;;;;;;3.42;1.65;;;5.80;92.20;;;;;;5031466;28;20766;-66
2022/03/06 12:25:57;;;;;;;2.50;1.60;;;5.80;92.10;;;;;;5027977;28;20137;-67
2022/03/06 12:28:31;;;;;;;2.35;1.17;;;5.90;92.10;;;;;;5027580;28;20127;-67
2022/03/06 12:30:57;;;;;;;5.13;1.95;;;5.90;92.10;;;;;;5026159;28;20124;-67
2022/03/06 12:33:30;;;;;;;4.75;1.35;;;6.10;92.00;;;;;;5008552;28;20095;-67
2022/03/06 12:36:08;;;;;;;;;;;5.80;92.10;;;;;;5041172;28;20052;-65
2022/03/06 12:38:34;;;;;;;3.35;1.73;;;5.80;91.80;;;;;;5020480;28;19921;-66
2022/03/06 12:41:00;;;;;;;3.83;1.77;;;6.00;92.60;;;;;;5030927;28;20053;-65
2022/03/06 12:43:30;;;;;;;3.55;1.55;;;5.90;92.60;;;;;;5015995;28;20095;-65
2022/03/06 12:45:56;;;;;;;3.38;2.63;;;5.80;92.60;;;;;;5033418;28;20053;-65
2022/03/06 12:48:22;;;;;;;4.07;1.95;;;5.90;92.60;;;;;;5030199;28;20245;-65
2022/03/06 12:50:48;;;;;;;5.00;1.65;;;5.90;92.60;;;;;;5032626;28;20046;-65
2022/03/06 12:53:17;;;;;;;3.53;2.08;;;6.20;92.70;;;;;;5032046;28;20041;-65
2022/03/06 12:55:43;;;;;;;3.50;1.85;;;5.90;92.80;;;;;;5033247;28;20041;-65
2022/03/06 12:58:09;;;;;;;3.17;1.85;;;6.40;93.00;;;;;;5033317;28;20091;-65